sensor_id;sensor_type;location;lat;lon;timestamp;temperature;humidity
22173;DHT22;11252;50.596;17.648;2023-09-12T00:02:15;16.70;92.20
22173;DHT22;11252;50.596;17.648;2023-09-12T00:04:42;16.70;92.20
22173;DHT22;11252;50.596;17.648;2023-09-12T00:07:09;16.60;92.20
22173;DHT22;11252;50.596;17.648;2023-09-12T00:09:37;16.60;92.20
22173;DHT22;11252;50.596;17.648;2023-09-12T00:12:04;16.50;92.20
22173;DHT22;11252;50.596;17.648;2023-09-12T00:14:32;16.50;92.20
22173;DHT22;11252;50.596;17.648;2023-09-12T00:16:59;16.50;92.20
22173;DHT22;11252;50.596;17.648;2023-09-12T00:19:26;16.50;92.20
22173;DHT22;11252;50.596;17.648;2023-09-12T00:21:53;16.50;92.20
22173;DHT22;11252;50.596;17.648;2023-09-12T00:24:20;16.40;92.20
22173;DHT22;11252;50.596;17.648;2023-09-12T00:26:47;16.40;92.20
22173;DHT22;11252;50.596;17.648;2023-09-12T00:29:14;16.40;92.20
22173;DHT22;11252;50.596;17.648;2023-09-12T00:31:41;16.40;92.20
22173;DHT22;11252;50.596;17.648;2023-09-12T00:34:08;16.30;92.20
22173;DHT22;11252;50.596;17.648;2023-09-12T00:36:36;16.30;92.20
22173;DHT22;11252;50.596;17.648;2023-09-12T00:39:04;16.30;92.20
22173;DHT22;11252;50.596;17.648;2023-09-12T00:41:31;16.20;92.20
22173;DHT22;11252;50.596;17.648;2023-09-12T00:43:59;16.20;92.20
22173;DHT22;11252;50.596;17.648;2023-09-12T00:46:26;16.20;92.20
22173;DHT22;11252;50.596;17.648;2023-09-12T00:48:55;16.20;92.20
22173;DHT22;11252;50.596;17.648;2023-09-12T00:51:24;16.10;92.20
22173;DHT22;11252;50.596;17.648;2023-09-12T00:53:52;16.10;92.20
22173;DHT22;11252;50.596;17.648;2023-09-12T00:56:21;16.10;92.20
22173;DHT22;11252;50.596;17.648;2023-09-12T00:58:48;16.10;92.20
22173;DHT22;11252;50.596;17.648;2023-09-12T01:01:18;16.10;92.20
22173;DHT22;11252;50.596;17.648;2023-09-12T01:03:49;16.00;92.20
22173;DHT22;11252;50.596;17.648;2023-09-12T01:06:19;16.00;92.20
22173;DHT22;11252;50.596;17.648;2023-09-12T01:08:46;16.00;92.20
22173;DHT22;11252;50.596;17.648;2023-09-12T01:11:14;16.00;92.20
22173;DHT22;11252;50.596;17.648;2023-09-12T01:13:41;15.90;92.20
22173;DHT22;11252;50.596;17.648;2023-09-12T01:16:08;15.90;92.20
22173;DHT22;11252;50.596;17.648;2023-09-12T01:18:36;15.80;92.20
22173;DHT22;11252;50.596;17.648;2023-09-12T01:24:39;15.80;92.20
22173;DHT22;11252;50.596;17.648;2023-09-12T01:27:30;15.80;92.20
22173;DHT22;11252;50.596;17.648;2023-09-12T01:30:03;15.70;92.20
22173;DHT22;11252;50.596;17.648;2023-09-12T01:32:35;15.70;92.20
22173;DHT22;11252;50.596;17.648;2023-09-12T01:35:02;15.70;92.20
22173;DHT22;11252;50.596;17.648;2023-09-12T01:37:33;15.70;92.20
22173;DHT22;11252;50.596;17.648;2023-09-12T01:40:01;15.70;92.20
22173;DHT22;11252;50.596;17.648;2023-09-12T01:42:43;15.70;92.20
22173;DHT22;11252;50.596;17.648;2023-09-12T01:45:15;15.70;92.20
22173;DHT22;11252;50.596;17.648;2023-09-12T01:47:45;15.60;92.20
22173;DHT22;11252;50.596;17.648;2023-09-12T01:50:12;15.60;92.20
22173;DHT22;11252;50.596;17.648;2023-09-12T01:52:41;15.70;92.20
22173;DHT22;11252;50.596;17.648;2023-09-12T01:55:09;15.70;92.20
22173;DHT22;11252;50.596;17.648;2023-09-12T01:57:37;15.70;92.20
22173;DHT22;11252;50.596;17.648;2023-09-12T02:00:05;15.70;92.20
22173;DHT22;11252;50.596;17.648;2023-09-12T02:02:33;15.70;92.20
22173;DHT22;11252;50.596;17.648;2023-09-12T02:05:16;15.70;92.20
22173;DHT22;11252;50.596;17.648;2023-09-12T02:07:46;15.70;92.20
22173;DHT22;11252;50.596;17.648;2023-09-12T02:10:14;15.60;92.20
22173;DHT22;11252;50.596;17.648;2023-09-12T02:12:42;15.60;92.20
22173;DHT22;11252;50.596;17.648;2023-09-12T02:15:09;15.50;92.20
22173;DHT22;11252;50.596;17.648;2023-09-12T02:17:36;15.50;92.20
22173;DHT22;11252;50.596;17.648;2023-09-12T02:20:07;15.50;92.20
22173;DHT22;11252;50.596;17.648;2023-09-12T02:22:35;15.50;92.20
22173;DHT22;11252;50.596;17.648;2023-09-12T02:25:05;15.50;92.20
22173;DHT22;11252;50.596;17.648;2023-09-12T02:27:32;15.40;92.20
22173;DHT22;11252;50.596;17.648;2023-09-12T02:30:01;15.40;92.20
22173;DHT22;11252;50.596;17.648;2023-09-12T02:32:35;15.30;92.20
22173;DHT22;11252;50.596;17.648;2023-09-12T02:35:02;15.30;92.20
22173;DHT22;11252;50.596;17.648;2023-09-12T02:37:35;15.20;92.20
22173;DHT22;11252;50.596;17.648;2023-09-12T02:40:03;15.20;92.20
22173;DHT22;11252;50.596;17.648;2023-09-12T02:42:32;15.20;92.20
22173;DHT22;11252;50.596;17.648;2023-09-12T02:44:59;15.10;92.20
22173;DHT22;11252;50.596;17.648;2023-09-12T02:47:26;15.10;92.20
22173;DHT22;11252;50.596;17.648;2023-09-12T02:49:53;15.10;92.20
22173;DHT22;11252;50.596;17.648;2023-09-12T02:52:20;15.10;92.20
22173;DHT22;11252;50.596;17.648;2023-09-12T02:54:47;15.00;92.20
22173;DHT22;11252;50.596;17.648;2023-09-12T02:57:14;15.00;92.20
22173;DHT22;11252;50.596;17.648;2023-09-12T02:59:44;15.00;92.20
22173;DHT22;11252;50.596;17.648;2023-09-12T03:02:11;15.00;92.20
22173;DHT22;11252;50.596;17.648;2023-09-12T03:04:38;15.00;92.20
22173;DHT22;11252;50.596;17.648;2023-09-12T03:07:05;14.90;92.20
22173;DHT22;11252;50.596;17.648;2023-09-12T03:09:33;14.90;92.20
22173;DHT22;11252;50.596;17.648;2023-09-12T03:12:04;14.90;92.20
22173;DHT22;11252;50.596;17.648;2023-09-12T03:14:32;14.90;92.20
22173;DHT22;11252;50.596;17.648;2023-09-12T03:16:59;14.90;92.20
22173;DHT22;11252;50.596;17.648;2023-09-12T03:19:25;14.90;92.20
22173;DHT22;11252;50.596;17.648;2023-09-12T03:21:52;14.80;92.20
22173;DHT22;11252;50.596;17.648;2023-09-12T03:24:19;14.80;92.20
22173;DHT22;11252;50.596;17.648;2023-09-12T03:26:48;14.70;92.20
22173;DHT22;11252;50.596;17.648;2023-09-12T03:29:15;14.70;92.20
22173;DHT22;11252;50.596;17.648;2023-09-12T03:31:42;14.70;92.20
22173;DHT22;11252;50.596;17.648;2023-09-12T03:34:09;14.70;92.20
22173;DHT22;11252;50.596;17.648;2023-09-12T03:36:36;14.60;92.20
22173;DHT22;11252;50.596;17.648;2023-09-12T03:39:03;14.60;92.20
22173;DHT22;11252;50.596;17.648;2023-09-12T03:41:32;14.60;92.20
22173;DHT22;11252;50.596;17.648;2023-09-12T03:44:01;14.60;92.20
22173;DHT22;11252;50.596;17.648;2023-09-12T03:46:29;14.60;92.20
22173;DHT22;11252;50.596;17.648;2023-09-12T03:48:56;14.60;92.20
22173;DHT22;11252;50.596;17.648;2023-09-12T03:51:23;14.70;92.20
22173;DHT22;11252;50.596;17.648;2023-09-12T03:53:50;14.70;92.20
22173;DHT22;11252;50.596;17.648;2023-09-12T03:56:17;14.60;92.20
22173;DHT22;11252;50.596;17.648;2023-09-12T03:58:47;14.60;92.20
22173;DHT22;11252;50.596;17.648;2023-09-12T04:01:17;14.50;92.20
22173;DHT22;11252;50.596;17.648;2023-09-12T04:03:45;14.50;92.20
22173;DHT22;11252;50.596;17.648;2023-09-12T04:06:14;14.50;92.20
22173;DHT22;11252;50.596;17.648;2023-09-12T04:08:42;14.50;92.20
22173;DHT22;11252;50.596;17.648;2023-09-12T04:11:09;14.40;92.20
22173;DHT22;11252;50.596;17.648;2023-09-12T04:13:37;14.40;92.20
22173;DHT22;11252;50.596;17.648;2023-09-12T04:16:04;14.40;92.20
22173;DHT22;11252;50.596;17.648;2023-09-12T04:18:31;14.40;92.20
22173;DHT22;11252;50.596;17.648;2023-09-12T04:20:58;14.40;92.20
22173;DHT22;11252;50.596;17.648;2023-09-12T04:23:25;14.40;92.20
22173;DHT22;11252;50.596;17.648;2023-09-12T04:25:52;14.40;92.20
22173;DHT22;11252;50.596;17.648;2023-09-12T04:28:20;14.40;92.20
22173;DHT22;11252;50.596;17.648;2023-09-12T04:31:01;14.40;92.20
22173;DHT22;11252;50.596;17.648;2023-09-12T04:33:28;14.40;92.20
22173;DHT22;11252;50.596;17.648;2023-09-12T04:35:58;14.40;92.20
22173;DHT22;11252;50.596;17.648;2023-09-12T04:38:27;14.40;92.20
22173;DHT22;11252;50.596;17.648;2023-09-12T04:40:56;14.40;92.20
22173;DHT22;11252;50.596;17.648;2023-09-12T04:43:24;14.40;92.20
22173;DHT22;11252;50.596;17.648;2023-09-12T04:45:51;14.40;92.20
22173;DHT22;11252;50.596;17.648;2023-09-12T04:48:18;14.50;92.20
22173;DHT22;11252;50.596;17.648;2023-09-12T04:50:45;14.60;92.20
22173;DHT22;11252;50.596;17.648;2023-09-12T04:53:12;14.60;92.20
22173;DHT22;11252;50.596;17.648;2023-09-12T04:55:39;14.60;92.20
22173;DHT22;11252;50.596;17.648;2023-09-12T04:58:06;14.60;92.20
22173;DHT22;11252;50.596;17.648;2023-09-12T05:00:33;14.60;92.20
22173;DHT22;11252;50.596;17.648;2023-09-12T05:03:02;14.60;92.20
22173;DHT22;11252;50.596;17.648;2023-09-12T05:05:30;14.60;92.20
22173;DHT22;11252;50.596;17.648;2023-09-12T05:07:57;14.60;92.20
22173;DHT22;11252;50.596;17.648;2023-09-12T05:10:24;14.70;92.20
22173;DHT22;11252;50.596;17.648;2023-09-12T05:12:51;14.70;92.20
22173;DHT22;11252;50.596;17.648;2023-09-12T05:15:19;14.70;92.20
22173;DHT22;11252;50.596;17.648;2023-09-12T05:17:46;14.80;92.20
22173;DHT22;11252;50.596;17.648;2023-09-12T05:20:13;14.90;92.20
22173;DHT22;11252;50.596;17.648;2023-09-12T05:22:40;15.00;92.20
22173;DHT22;11252;50.596;17.648;2023-09-12T05:25:07;15.00;92.20
22173;DHT22;11252;50.596;17.648;2023-09-12T05:27:34;15.10;92.20
22173;DHT22;11252;50.596;17.648;2023-09-12T05:30:02;15.20;92.20
22173;DHT22;11252;50.596;17.648;2023-09-12T05:32:31;15.20;92.20
22173;DHT22;11252;50.596;17.648;2023-09-12T05:34:58;15.40;92.20
22173;DHT22;11252;50.596;17.648;2023-09-12T05:37:45;15.60;92.20
22173;DHT22;11252;50.596;17.648;2023-09-12T05:40:12;15.70;92.20
22173;DHT22;11252;50.596;17.648;2023-09-12T05:42:39;15.80;92.20
22173;DHT22;11252;50.596;17.648;2023-09-12T05:45:06;16.00;92.20
22173;DHT22;11252;50.596;17.648;2023-09-12T05:47:34;16.20;92.20
22173;DHT22;11252;50.596;17.648;2023-09-12T05:50:01;16.30;92.20
22173;DHT22;11252;50.596;17.648;2023-09-12T05:52:32;16.40;92.20
22173;DHT22;11252;50.596;17.648;2023-09-12T05:55:00;16.50;92.20
22173;DHT22;11252;50.596;17.648;2023-09-12T05:57:27;16.60;92.20
22173;DHT22;11252;50.596;17.648;2023-09-12T05:59:54;16.80;92.20
22173;DHT22;11252;50.596;17.648;2023-09-12T06:02:21;17.00;92.20
22173;DHT22;11252;50.596;17.648;2023-09-12T06:04:48;17.10;92.20
22173;DHT22;11252;50.596;17.648;2023-09-12T06:07:15;17.30;92.20
22173;DHT22;11252;50.596;17.648;2023-09-12T06:09:43;17.40;92.20
22173;DHT22;11252;50.596;17.648;2023-09-12T06:12:10;17.60;92.20
22173;DHT22;11252;50.596;17.648;2023-09-12T06:14:37;17.80;92.20
22173;DHT22;11252;50.596;17.648;2023-09-12T06:17:03;18.00;92.20
22173;DHT22;11252;50.596;17.648;2023-09-12T06:19:30;18.20;92.20
22173;DHT22;11252;50.596;17.648;2023-09-12T06:21:57;18.30;92.20
22173;DHT22;11252;50.596;17.648;2023-09-12T06:24:26;18.50;92.20
22173;DHT22;11252;50.596;17.648;2023-09-12T06:26:53;18.70;92.20
22173;DHT22;11252;50.596;17.648;2023-09-12T06:29:20;18.90;92.20
22173;DHT22;11252;50.596;17.648;2023-09-12T06:31:47;19.10;92.20
22173;DHT22;11252;50.596;17.648;2023-09-12T06:34:14;19.30;92.20
22173;DHT22;11252;50.596;17.648;2023-09-12T06:36:42;19.50;92.20
22173;DHT22;11252;50.596;17.648;2023-09-12T06:39:11;19.60;92.20
22173;DHT22;11252;50.596;17.648;2023-09-12T06:41:38;19.70;92.20
22173;DHT22;11252;50.596;17.648;2023-09-12T06:44:06;19.80;92.20
22173;DHT22;11252;50.596;17.648;2023-09-12T06:46:34;20.00;92.20
22173;DHT22;11252;50.596;17.648;2023-09-12T06:49:04;20.10;92.20
22173;DHT22;11252;50.596;17.648;2023-09-12T06:51:31;20.10;92.20
22173;DHT22;11252;50.596;17.648;2023-09-12T06:54:04;20.30;92.20
22173;DHT22;11252;50.596;17.648;2023-09-12T06:56:31;20.40;92.20
22173;DHT22;11252;50.596;17.648;2023-09-12T06:58:59;20.40;92.20
22173;DHT22;11252;50.596;17.648;2023-09-12T07:01:26;20.50;92.20
22173;DHT22;11252;50.596;17.648;2023-09-12T07:03:53;20.60;92.20
22173;DHT22;11252;50.596;17.648;2023-09-12T07:06:22;20.70;92.20
22173;DHT22;11252;50.596;17.648;2023-09-12T07:08:49;20.80;92.20
22173;DHT22;11252;50.596;17.648;2023-09-12T07:11:18;21.10;92.20
22173;DHT22;11252;50.596;17.648;2023-09-12T07:13:46;21.20;92.20
22173;DHT22;11252;50.596;17.648;2023-09-12T07:16:15;21.30;92.20
22173;DHT22;11252;50.596;17.648;2023-09-12T07:18:43;21.50;92.20
22173;DHT22;11252;50.596;17.648;2023-09-12T07:21:10;21.50;92.20
22173;DHT22;11252;50.596;17.648;2023-09-12T07:23:39;21.70;92.20
22173;DHT22;11252;50.596;17.648;2023-09-12T07:26:14;21.90;92.20
22173;DHT22;11252;50.596;17.648;2023-09-12T07:28:41;21.90;92.20
22173;DHT22;11252;50.596;17.648;2023-09-12T07:31:09;22.00;92.20
22173;DHT22;11252;50.596;17.648;2023-09-12T07:33:36;22.20;92.20
22173;DHT22;11252;50.596;17.648;2023-09-12T07:36:03;22.30;92.20
22173;DHT22;11252;50.596;17.648;2023-09-12T07:38:31;22.40;92.20
22173;DHT22;11252;50.596;17.648;2023-09-12T07:40:58;22.50;92.20
22173;DHT22;11252;50.596;17.648;2023-09-12T07:43:27;22.70;92.20
22173;DHT22;11252;50.596;17.648;2023-09-12T07:45:57;22.80;92.20
22173;DHT22;11252;50.596;17.648;2023-09-12T07:48:25;22.90;92.20
22173;DHT22;11252;50.596;17.648;2023-09-12T07:50:52;23.10;92.20
22173;DHT22;11252;50.596;17.648;2023-09-12T07:53:19;23.20;92.20
22173;DHT22;11252;50.596;17.648;2023-09-12T07:55:47;23.60;92.20
22173;DHT22;11252;50.596;17.648;2023-09-12T07:58:15;24.00;92.20
22173;DHT22;11252;50.596;17.648;2023-09-12T08:00:42;24.20;91.20
22173;DHT22;11252;50.596;17.648;2023-09-12T08:03:09;24.30;91.50
22173;DHT22;11252;50.596;17.648;2023-09-12T08:05:36;24.50;90.90
22173;DHT22;11252;50.596;17.648;2023-09-12T08:08:05;24.80;89.90
22173;DHT22;11252;50.596;17.648;2023-09-12T08:10:32;25.00;90.50
22173;DHT22;11252;50.596;17.648;2023-09-12T08:12:59;25.00;89.50
22173;DHT22;11252;50.596;17.648;2023-09-12T08:15:26;25.00;89.10
22173;DHT22;11252;50.596;17.648;2023-09-12T08:17:54;25.00;88.80
22173;DHT22;11252;50.596;17.648;2023-09-12T08:20:21;25.20;89.20
22173;DHT22;11252;50.596;17.648;2023-09-12T08:22:49;25.30;88.50
22173;DHT22;11252;50.596;17.648;2023-09-12T08:25:16;25.70;87.90
22173;DHT22;11252;50.596;17.648;2023-09-12T08:27:43;26.10;87.40
22173;DHT22;11252;50.596;17.648;2023-09-12T08:30:12;26.30;86.70
22173;DHT22;11252;50.596;17.648;2023-09-12T08:32:40;26.50;86.20
22173;DHT22;11252;50.596;17.648;2023-09-12T08:35:14;26.60;84.10
22173;DHT22;11252;50.596;17.648;2023-09-12T08:37:42;26.90;83.20
22173;DHT22;11252;50.596;17.648;2023-09-12T08:40:10;27.20;84.30
22173;DHT22;11252;50.596;17.648;2023-09-12T08:42:40;27.60;82.80
22173;DHT22;11252;50.596;17.648;2023-09-12T08:45:15;27.70;81.40
22173;DHT22;11252;50.596;17.648;2023-09-12T08:47:45;28.00;82.90
22173;DHT22;11252;50.596;17.648;2023-09-12T08:50:15;28.50;80.90
22173;DHT22;11252;50.596;17.648;2023-09-12T08:52:45;28.50;81.40
22173;DHT22;11252;50.596;17.648;2023-09-12T08:55:30;28.50;80.70
22173;DHT22;11252;50.596;17.648;2023-09-12T08:58:02;28.00;81.60
22173;DHT22;11252;50.596;17.648;2023-09-12T09:00:30;28.10;81.60
22173;DHT22;11252;50.596;17.648;2023-09-12T09:02:58;28.10;81.40
22173;DHT22;11252;50.596;17.648;2023-09-12T09:05:25;28.50;82.00
22173;DHT22;11252;50.596;17.648;2023-09-12T09:07:54;29.00;80.70
22173;DHT22;11252;50.596;17.648;2023-09-12T09:10:22;29.10;78.50
22173;DHT22;11252;50.596;17.648;2023-09-12T09:13:12;29.40;78.90
22173;DHT22;11252;50.596;17.648;2023-09-12T09:15:39;29.60;77.60
22173;DHT22;11252;50.596;17.648;2023-09-12T09:18:09;29.70;78.30
22173;DHT22;11252;50.596;17.648;2023-09-12T09:20:40;30.20;77.70
22173;DHT22;11252;50.596;17.648;2023-09-12T09:23:10;30.60;75.50
22173;DHT22;11252;50.596;17.648;2023-09-12T09:25:43;30.70;76.40
22173;DHT22;11252;50.596;17.648;2023-09-12T09:28:17;30.60;74.30
22173;DHT22;11252;50.596;17.648;2023-09-12T09:30:47;30.60;73.80
22173;DHT22;11252;50.596;17.648;2023-09-12T09:33:16;30.60;74.30
22173;DHT22;11252;50.596;17.648;2023-09-12T09:35:45;30.30;74.60
22173;DHT22;11252;50.596;17.648;2023-09-12T09:38:13;30.50;74.40
22173;DHT22;11252;50.596;17.648;2023-09-12T09:40:45;30.80;75.00
22173;DHT22;11252;50.596;17.648;2023-09-12T09:43:13;31.00;74.60
22173;DHT22;11252;50.596;17.648;2023-09-12T09:45:46;31.60;72.30
22173;DHT22;11252;50.596;17.648;2023-09-12T09:48:21;31.30;71.70
22173;DHT22;11252;50.596;17.648;2023-09-12T09:50:49;31.30;71.50
22173;DHT22;11252;50.596;17.648;2023-09-12T09:53:32;31.90;71.30
22173;DHT22;11252;50.596;17.648;2023-09-12T09:56:14;32.40;69.20
22173;DHT22;11252;50.596;17.648;2023-09-12T09:58:48;32.10;69.40
22173;DHT22;11252;50.596;17.648;2023-09-12T10:01:34;31.90;70.20
22173;DHT22;11252;50.596;17.648;2023-09-12T10:04:01;32.20;69.10
22173;DHT22;11252;50.596;17.648;2023-09-12T10:06:31;32.10;68.90
22173;DHT22;11252;50.596;17.648;2023-09-12T10:08:59;32.10;69.30
22173;DHT22;11252;50.596;17.648;2023-09-12T10:11:28;32.10;70.20
22173;DHT22;11252;50.596;17.648;2023-09-12T10:13:59;32.20;70.90
22173;DHT22;11252;50.596;17.648;2023-09-12T10:16:31;32.30;69.30
22173;DHT22;11252;50.596;17.648;2023-09-12T10:19:32;32.50;68.70
22173;DHT22;11252;50.596;17.648;2023-09-12T10:22:21;32.70;68.00
22173;DHT22;11252;50.596;17.648;2023-09-12T10:24:49;33.20;65.50
22173;DHT22;11252;50.596;17.648;2023-09-12T10:27:19;32.90;64.60
22173;DHT22;11252;50.596;17.648;2023-09-12T10:29:48;33.10;61.80
22173;DHT22;11252;50.596;17.648;2023-09-12T10:32:17;33.20;63.40
22173;DHT22;11252;50.596;17.648;2023-09-12T10:34:46;33.40;63.20
22173;DHT22;11252;50.596;17.648;2023-09-12T10:37:17;33.00;65.50
22173;DHT22;11252;50.596;17.648;2023-09-12T10:39:45;33.00;64.40
22173;DHT22;11252;50.596;17.648;2023-09-12T10:42:13;33.20;65.60
22173;DHT22;11252;50.596;17.648;2023-09-12T10:44:40;33.30;65.60
22173;DHT22;11252;50.596;17.648;2023-09-12T10:47:08;33.60;62.00
22173;DHT22;11252;50.596;17.648;2023-09-12T10:49:37;34.40;63.80
22173;DHT22;11252;50.596;17.648;2023-09-12T10:52:04;34.20;62.80
22173;DHT22;11252;50.596;17.648;2023-09-12T10:54:39;33.80;62.60
22173;DHT22;11252;50.596;17.648;2023-09-12T10:57:10;34.00;63.90
22173;DHT22;11252;50.596;17.648;2023-09-12T11:02:30;35.20;61.00
22173;DHT22;11252;50.596;17.648;2023-09-12T11:04:58;34.60;60.90
22173;DHT22;11252;50.596;17.648;2023-09-12T11:12:43;35.70;59.90
22173;DHT22;11252;50.596;17.648;2023-09-12T11:15:11;36.20;57.20
22173;DHT22;11252;50.596;17.648;2023-09-12T11:17:39;36.30;56.90
22173;DHT22;11252;50.596;17.648;2023-09-12T11:20:07;36.90;56.80
22173;DHT22;11252;50.596;17.648;2023-09-12T11:23:09;36.90;54.40
22173;DHT22;11252;50.596;17.648;2023-09-12T11:25:36;36.60;56.40
22173;DHT22;11252;50.596;17.648;2023-09-12T11:28:04;36.30;56.30
22173;DHT22;11252;50.596;17.648;2023-09-12T11:30:32;36.50;56.80
22173;DHT22;11252;50.596;17.648;2023-09-12T11:33:01;37.30;54.60
22173;DHT22;11252;50.596;17.648;2023-09-12T11:35:37;37.70;54.40
22173;DHT22;11252;50.596;17.648;2023-09-12T11:38:09;37.80;53.90
22173;DHT22;11252;50.596;17.648;2023-09-12T11:43:04;36.60;53.70
22173;DHT22;11252;50.596;17.648;2023-09-12T11:45:32;36.50;53.30
22173;DHT22;11252;50.596;17.648;2023-09-12T11:48:00;37.20;55.00
22173;DHT22;11252;50.596;17.648;2023-09-12T11:50:31;37.90;53.70
22173;DHT22;11252;50.596;17.648;2023-09-12T11:53:06;38.20;53.10
22173;DHT22;11252;50.596;17.648;2023-09-12T11:55:44;38.00;52.70
22173;DHT22;11252;50.596;17.648;2023-09-12T11:58:13;36.60;54.90
22173;DHT22;11252;50.596;17.648;2023-09-12T12:00:49;35.60;54.60
22173;DHT22;11252;50.596;17.648;2023-09-12T12:03:22;35.10;57.20
22173;DHT22;11252;50.596;17.648;2023-09-12T12:05:49;34.90;56.60
22173;DHT22;11252;50.596;17.648;2023-09-12T12:08:18;34.60;57.30
22173;DHT22;11252;50.596;17.648;2023-09-12T12:10:52;33.90;59.70
22173;DHT22;11252;50.596;17.648;2023-09-12T12:13:21;33.20;59.60
22173;DHT22;11252;50.596;17.648;2023-09-12T12:15:49;32.90;60.20
22173;DHT22;11252;50.596;17.648;2023-09-12T12:18:17;32.70;59.50
22173;DHT22;11252;50.596;17.648;2023-09-12T12:20:44;32.60;60.20
22173;DHT22;11252;50.596;17.648;2023-09-12T12:23:12;32.40;59.60
22173;DHT22;11252;50.596;17.648;2023-09-12T12:25:39;32.40;61.80
22173;DHT22;11252;50.596;17.648;2023-09-12T12:28:07;32.70;61.60
22173;DHT22;11252;50.596;17.648;2023-09-12T12:30:35;32.90;61.60
22173;DHT22;11252;50.596;17.648;2023-09-12T12:33:08;33.00;62.50
22173;DHT22;11252;50.596;17.648;2023-09-12T12:36:05;33.10;61.40
22173;DHT22;11252;50.596;17.648;2023-09-12T12:38:37;33.00;60.40
22173;DHT22;11252;50.596;17.648;2023-09-12T12:41:27;32.80;61.30
22173;DHT22;11252;50.596;17.648;2023-09-12T12:44:12;32.80;61.80
22173;DHT22;11252;50.596;17.648;2023-09-12T12:46:53;33.00;60.90
22173;DHT22;11252;50.596;17.648;2023-09-12T12:49:21;32.90;60.20
22173;DHT22;11252;50.596;17.648;2023-09-12T12:51:48;32.80;61.00
22173;DHT22;11252;50.596;17.648;2023-09-12T12:54:16;32.60;61.80
22173;DHT22;11252;50.596;17.648;2023-09-12T12:56:43;32.60;61.20
22173;DHT22;11252;50.596;17.648;2023-09-12T12:59:12;32.60;62.50
22173;DHT22;11252;50.596;17.648;2023-09-12T13:01:39;32.40;61.80
22173;DHT22;11252;50.596;17.648;2023-09-12T13:04:07;32.40;63.00
22173;DHT22;11252;50.596;17.648;2023-09-12T13:06:35;32.20;62.50
22173;DHT22;11252;50.596;17.648;2023-09-12T13:09:04;32.00;62.40
22173;DHT22;11252;50.596;17.648;2023-09-12T13:11:33;31.80;63.20
22173;DHT22;11252;50.596;17.648;2023-09-12T13:14:03;31.70;63.10
22173;DHT22;11252;50.596;17.648;2023-09-12T13:16:38;31.70;64.60
22173;DHT22;11252;50.596;17.648;2023-09-12T13:19:09;31.70;64.60
22173;DHT22;11252;50.596;17.648;2023-09-12T13:21:38;31.60;64.40
22173;DHT22;11252;50.596;17.648;2023-09-12T13:24:06;31.60;63.90
22173;DHT22;11252;50.596;17.648;2023-09-12T13:26:33;31.50;64.90
22173;DHT22;11252;50.596;17.648;2023-09-12T13:29:00;31.50;64.20
22173;DHT22;11252;50.596;17.648;2023-09-12T13:31:27;31.40;64.90
22173;DHT22;11252;50.596;17.648;2023-09-12T13:33:54;31.40;64.00
22173;DHT22;11252;50.596;17.648;2023-09-12T13:36:21;31.40;63.50
22173;DHT22;11252;50.596;17.648;2023-09-12T13:38:50;31.40;63.90
22173;DHT22;11252;50.596;17.648;2023-09-12T13:41:18;31.40;64.60
22173;DHT22;11252;50.596;17.648;2023-09-12T13:43:45;31.30;64.60
22173;DHT22;11252;50.596;17.648;2023-09-12T13:46:13;31.20;64.40
22173;DHT22;11252;50.596;17.648;2023-09-12T13:48:40;31.30;65.50
22173;DHT22;11252;50.596;17.648;2023-09-12T13:51:07;31.40;65.20
22173;DHT22;11252;50.596;17.648;2023-09-12T13:53:34;31.50;65.20
22173;DHT22;11252;50.596;17.648;2023-09-12T13:56:02;31.60;65.10
22173;DHT22;11252;50.596;17.648;2023-09-12T13:58:29;31.70;65.40
22173;DHT22;11252;50.596;17.648;2023-09-12T14:01:10;31.70;65.80
22173;DHT22;11252;50.596;17.648;2023-09-12T14:03:43;31.70;65.80
22173;DHT22;11252;50.596;17.648;2023-09-12T14:06:12;31.70;65.50
22173;DHT22;11252;50.596;17.648;2023-09-12T14:08:39;31.60;65.80
22173;DHT22;11252;50.596;17.648;2023-09-12T14:11:06;31.60;65.50
22173;DHT22;11252;50.596;17.648;2023-09-12T14:13:45;31.60;64.90
22173;DHT22;11252;50.596;17.648;2023-09-12T14:16:16;31.50;65.50
22173;DHT22;11252;50.596;17.648;2023-09-12T14:18:44;31.30;65.80
22173;DHT22;11252;50.596;17.648;2023-09-12T14:21:11;31.30;65.70
22173;DHT22;11252;50.596;17.648;2023-09-12T14:23:39;31.30;65.70
22173;DHT22;11252;50.596;17.648;2023-09-12T14:26:06;31.30;66.00
22173;DHT22;11252;50.596;17.648;2023-09-12T14:28:34;31.20;66.20
22173;DHT22;11252;50.596;17.648;2023-09-12T14:31:02;31.30;65.90
22173;DHT22;11252;50.596;17.648;2023-09-12T14:33:31;31.30;65.70
22173;DHT22;11252;50.596;17.648;2023-09-12T14:35:58;31.20;66.10
22173;DHT22;11252;50.596;17.648;2023-09-12T14:38:28;31.10;65.90
22173;DHT22;11252;50.596;17.648;2023-09-12T14:40:55;31.00;66.30
22173;DHT22;11252;50.596;17.648;2023-09-12T14:43:22;31.00;66.60
22173;DHT22;11252;50.596;17.648;2023-09-12T14:45:50;31.00;66.20
22173;DHT22;11252;50.596;17.648;2023-09-12T14:48:17;30.80;66.80
22173;DHT22;11252;50.596;17.648;2023-09-12T14:50:44;30.80;67.00
22173;DHT22;11252;50.596;17.648;2023-09-12T14:53:16;30.70;68.10
22173;DHT22;11252;50.596;17.648;2023-09-12T14:55:43;30.70;68.50
22173;DHT22;11252;50.596;17.648;2023-09-12T14:58:10;30.70;67.50
22173;DHT22;11252;50.596;17.648;2023-09-12T15:00:37;30.60;68.30
22173;DHT22;11252;50.596;17.648;2023-09-12T15:03:05;30.60;68.40
22173;DHT22;11252;50.596;17.648;2023-09-12T15:05:32;30.60;68.30
22173;DHT22;11252;50.596;17.648;2023-09-12T15:08:00;30.50;69.00
22173;DHT22;11252;50.596;17.648;2023-09-12T15:10:27;30.60;68.90
22173;DHT22;11252;50.596;17.648;2023-09-12T15:12:54;30.60;68.40
22173;DHT22;11252;50.596;17.648;2023-09-12T15:15:21;30.70;68.20
22173;DHT22;11252;50.596;17.648;2023-09-12T15:17:49;30.70;68.70
22173;DHT22;11252;50.596;17.648;2023-09-12T15:20:17;30.80;67.90
22173;DHT22;11252;50.596;17.648;2023-09-12T15:22:44;30.90;67.80
22173;DHT22;11252;50.596;17.648;2023-09-12T15:25:11;31.00;67.40
22173;DHT22;11252;50.596;17.648;2023-09-12T15:27:38;31.00;66.80
22173;DHT22;11252;50.596;17.648;2023-09-12T15:30:06;30.90;67.20
22173;DHT22;11252;50.596;17.648;2023-09-12T15:32:33;30.70;68.10
22173;DHT22;11252;50.596;17.648;2023-09-12T15:35:00;30.60;68.50
22173;DHT22;11252;50.596;17.648;2023-09-12T15:37:29;30.40;68.40
22173;DHT22;11252;50.596;17.648;2023-09-12T15:39:57;30.30;69.30
22173;DHT22;11252;50.596;17.648;2023-09-12T15:42:24;30.20;70.20